Terminal Aerodrome Forecast
Issued by NWS Houston/Galveston, TX

Home | Current Version | Previous Version | Text Only | Print | Product List | Glossary On
Versions: 1 2 3 4 5 6 7 8 9 10 11 12 13 14 15 16 17 18 19 20 21 22 23 24 25 26
000
FTUS44 KHGX 190915 AAA
TAFCLL
TAF AMD
KCLL 190915Z 1909/2006 30005KT 2SM BR VCSH OVC002
     FM191400 21005KT P6SM VCSH BKN015 BKN050
     FM192000 20006KT P6SM SCT015
     FM200200 18005KT P6SM SCT250=

USA.gov is the U.S. government's official web portal to all federal, state and local government web resources and services.